Time;durP1;ratioP1;P1;durP2;ratioP2;P2;SDS_P1;SDS_P2;PMS_P1;PMS_P2;Temp;Humidity;BMP_temperature;BMP_pressure;BME280_temperature;BME280_humidity;BME280_pressure;Samples;Min_cycle;Max_cycle;Signal;HPM_P1;HPM_P2
2022/10/24 00:00:00;;;;;;;8.10;1.95;;;15.20;99.90;;;;;;5055690;28;20044;-48
2022/10/24 00:02:27;;;;;;;4.50;2.10;;;15.10;99.90;;;;;;5056268;28;20037;-53
2022/10/24 00:04:52;;;;;;;4.82;1.75;;;15.10;99.90;;;;;;5075423;28;20040;-51
2022/10/24 00:07:18;;;;;;;5.88;1.85;;;15.10;99.90;;;;;;5057247;28;20383;-49
2022/10/24 00:09:43;;;;;;;8.27;1.70;;;15.00;99.90;;;;;;5063009;28;20028;-50
2022/10/24 00:12:09;;;;;;;5.03;1.85;;;15.00;99.90;;;;;;5056513;28;20119;-50
2022/10/24 00:14:35;;;;;;;6.65;1.40;;;15.00;99.90;;;;;;5057479;28;20040;-51
2022/10/24 00:17:02;;;;;;;9.80;1.92;;;15.00;99.90;;;;;;5055941;28;20037;-51
2022/10/24 00:19:28;;;;;;;5.45;1.65;;;15.00;99.90;;;;;;5062874;28;20045;-51
2022/10/24 00:21:53;;;;;;;6.05;1.60;;;15.00;99.90;;;;;;5055094;28;20394;-53
2022/10/24 00:24:19;;;;;;;5.30;1.70;;;15.00;99.90;;;;;;5060120;28;20060;-52
2022/10/24 00:26:44;;;;;;;6.70;1.98;;;14.90;99.90;;;;;;5059462;28;20421;-54
2022/10/24 00:29:11;;;;;;;6.25;2.58;;;14.90;99.90;;;;;;5057103;28;20033;-54
2022/10/24 00:31:37;;;;;;;6.50;2.13;;;14.90;99.90;;;;;;5053713;28;20228;-52
2022/10/24 00:34:04;;;;;;;5.07;2.40;;;14.90;99.90;;;;;;5055919;28;20098;-52
2022/10/24 00:36:30;;;;;;;6.30;2.40;;;14.80;99.90;;;;;;5054607;28;20096;-52
2022/10/24 00:38:55;;;;;;;6.72;2.30;;;14.70;99.90;;;;;;5052243;28;20083;-52
2022/10/24 00:41:28;;;;;;;6.43;2.38;;;14.70;99.90;;;;;;5057586;28;20059;-51
2022/10/24 00:44:18;;;;;;;6.97;2.42;;;14.70;99.90;;;;;;5058443;28;20126;-52
2022/10/24 00:47:16;;;;;;;5.93;2.25;;;14.70;99.90;;;;;;5059691;28;20052;-53
2022/10/24 00:50:00;;;;;;;;;;;14.80;99.90;;;;;;5056206;28;20047;-51
2022/10/24 00:52:39;;;;;;;5.68;2.40;;;14.80;99.90;;;;;;5055773;28;19921;-52
2022/10/24 00:55:06;;;;;;;7.70;2.45;;;14.80;99.90;;;;;;5056519;28;20048;-53
2022/10/24 00:57:42;;;;;;;8.20;2.40;;;14.80;99.90;;;;;;5055480;28;20037;-52
2022/10/24 01:00:19;;;;;;;4.45;2.28;;;14.90;99.90;;;;;;5054582;28;21504;-53
2022/10/24 01:02:45;;;;;;;5.80;2.63;;;14.90;99.90;;;;;;5056642;28;20047;-49
2022/10/24 01:05:11;;;;;;;5.00;2.15;;;15.00;99.90;;;;;;5055443;28;20062;-51
2022/10/24 01:08:01;;;;;;;5.28;2.70;;;15.00;99.90;;;;;;5056942;28;20033;-49
2022/10/24 01:10:40;;;;;;;8.85;2.60;;;15.00;99.90;;;;;;5056315;28;20497;-51
2022/10/24 01:13:20;;;;;;;12.07;3.08;;;15.10;99.90;;;;;;5061987;28;20234;-53
2022/10/24 01:16:08;;;;;;;8.75;2.55;;;15.10;99.90;;;;;;5057476;28;20044;-53
2022/10/24 01:18:38;;;;;;;6.50;2.63;;;15.10;99.90;;;;;;5061437;28;20517;-54
2022/10/24 01:21:38;;;;;;;7.07;2.63;;;15.10;99.90;;;;;;5059409;28;20690;-54
2022/10/24 01:24:21;;;;;;;7.35;2.30;;;15.10;99.90;;;;;;5058372;28;20059;-52
2022/10/24 01:27:14;;;;;;;7.93;3.03;;;15.10;99.90;;;;;;5054497;28;20498;-50
2022/10/24 01:29:54;;;;;;;7.35;2.45;;;15.00;99.90;;;;;;5054246;28;20048;-51
2022/10/24 01:32:34;;;;;;;7.60;2.88;;;14.90;99.90;;;;;;5057937;28;20045;-52
2022/10/24 01:35:09;;;;;;;9.20;3.20;;;14.90;99.90;;;;;;5055581;28;20042;-50
2022/10/24 01:37:42;;;;;;;6.47;2.50;;;14.90;99.90;;;;;;5059463;28;20049;-52
2022/10/24 01:40:19;;;;;;;9.75;3.10;;;14.90;99.90;;;;;;5051318;28;20053;-52
2022/10/24 01:42:48;;;;;;;7.55;3.20;;;14.80;99.90;;;;;;5052032;28;20127;-50
2022/10/24 01:45:22;;;;;;;8.50;2.90;;;14.80;99.90;;;;;;5055473;28;20403;-52
2022/10/24 01:47:53;;;;;;;7.85;2.50;;;14.70;99.90;;;;;;5051315;28;20045;-54
2022/10/24 01:50:21;;;;;;;9.75;2.95;;;14.80;99.90;;;;;;5053189;28;20123;-50
2022/10/24 01:52:47;;;;;;;6.78;2.78;;;14.70;99.90;;;;;;5061142;28;21432;-52
2022/10/24 01:55:13;;;;;;;6.55;2.65;;;14.70;99.90;;;;;;5060407;28;20079;-51
2022/10/24 01:57:39;;;;;;;5.55;2.72;;;14.70;99.90;;;;;;5055374;28;20072;-51
2022/10/24 02:00:07;;;;;;;7.78;2.75;;;14.70;99.90;;;;;;5061939;28;20086;-51
2022/10/24 02:02:41;;;;;;;10.95;2.97;;;14.70;99.90;;;;;;5058327;28;20122;-50
2022/10/24 02:05:16;;;;;;;5.57;3.20;;;14.70;99.90;;;;;;5058681;28;20044;-51
2022/10/24 02:07:44;;;;;;;11.65;2.97;;;14.70;99.90;;;;;;5063163;28;20502;-50
2022/10/24 02:10:16;;;;;;;6.47;2.70;;;14.70;99.90;;;;;;5062254;28;20036;-51
2022/10/24 02:12:47;;;;;;;5.60;2.38;;;14.80;99.90;;;;;;5058153;28;20555;-53
2022/10/24 02:15:23;;;;;;;9.40;2.53;;;14.80;99.90;;;;;;5064305;28;20033;-53
2022/10/24 02:17:49;;;;;;;5.93;2.72;;;14.90;99.90;;;;;;5057581;28;20045;-51
2022/10/24 02:20:15;;;;;;;6.45;2.80;;;14.80;99.90;;;;;;5063042;28;20041;-50
2022/10/24 02:22:54;;;;;;;11.32;2.75;;;14.90;99.90;;;;;;5063060;28;20134;-54
2022/10/24 02:25:33;;;;;;;6.78;2.60;;;14.90;99.90;;;;;;5064087;28;20053;-53
2022/10/24 02:28:19;;;;;;;6.97;2.42;;;14.80;99.90;;;;;;5061882;28;20106;-52
2022/10/24 02:30:54;;;;;;;11.10;2.70;;;14.80;99.90;;;;;;5057156;28;20041;-52
2022/10/24 02:33:28;;;;;;;9.63;2.78;;;14.70;99.90;;;;;;5059672;28;20098;-53
2022/10/24 02:35:55;;;;;;;6.32;2.60;;;14.70;99.90;;;;;;5058569;28;20045;-53
2022/10/24 02:38:27;;;;;;;7.43;2.60;;;14.70;99.90;;;;;;5057619;28;20048;-53
2022/10/24 02:40:54;;;;;;;10.35;2.80;;;14.70;99.90;;;;;;5059485;28;20051;-53
2022/10/24 02:43:21;;;;;;;8.07;2.47;;;14.70;99.90;;;;;;5058887;28;20399;-53
2022/10/24 02:45:49;;;;;;;5.88;2.80;;;14.60;99.90;;;;;;5057486;28;20077;-52
2022/10/24 02:48:18;;;;;;;6.50;2.40;;;14.70;99.90;;;;;;5055590;28;20073;-53
2022/10/24 02:50:44;;;;;;;7.93;2.75;;;14.60;99.90;;;;;;5052299;28;20132;-53
2022/10/24 02:53:13;;;;;;;6.43;2.42;;;14.70;99.90;;;;;;5059984;28;20298;-52
2022/10/24 02:55:39;;;;;;;7.80;2.60;;;14.80;99.90;;;;;;5061760;28;20060;-53
2022/10/24 02:58:04;;;;;;;7.53;2.45;;;14.80;99.90;;;;;;5056931;28;20033;-52
2022/10/24 03:00:30;;;;;;;10.07;2.78;;;14.80;99.90;;;;;;5064681;28;20040;-53
2022/10/24 03:02:56;;;;;;;8.32;2.72;;;14.80;99.90;;;;;;5059788;28;20045;-50
2022/10/24 03:05:21;;;;;;;4.82;2.45;;;14.90;99.90;;;;;;5060423;28;20045;-52
2022/10/24 03:07:47;;;;;;;6.63;2.70;;;14.90;99.90;;;;;;5056930;28;20406;-55
2022/10/24 03:10:13;;;;;;;6.63;2.60;;;14.80;99.90;;;;;;5059698;28;20044;-50
2022/10/24 03:12:38;;;;;;;6.22;2.60;;;14.90;99.90;;;;;;5060303;28;20077;-53
2022/10/24 03:15:04;;;;;;;7.57;2.70;;;14.90;99.90;;;;;;5060715;28;20519;-52
2022/10/24 03:17:30;;;;;;;8.73;2.60;;;14.90;99.90;;;;;;5066971;28;20051;-51
2022/10/24 03:19:56;;;;;;;6.40;2.92;;;14.80;99.90;;;;;;5062595;28;20115;-53
2022/10/24 03:22:21;;;;;;;3.80;2.28;;;14.90;99.90;;;;;;5062861;28;20045;-52
2022/10/24 03:24:47;;;;;;;12.82;2.88;;;14.80;99.90;;;;;;5059772;28;20446;-50
2022/10/24 03:27:13;;;;;;;8.38;2.67;;;14.80;99.90;;;;;;5059172;28;20037;-52
2022/10/24 03:29:39;;;;;;;8.68;2.88;;;14.90;99.90;;;;;;5063291;28;20044;-51
2022/10/24 03:32:05;;;;;;;8.57;2.70;;;14.90;99.90;;;;;;5057453;28;20044;-52
2022/10/24 03:34:31;;;;;;;7.95;2.92;;;15.00;99.90;;;;;;5057101;28;20467;-50
2022/10/24 03:36:57;;;;;;;6.88;2.72;;;15.10;99.90;;;;;;5055367;28;20582;-50
2022/10/24 03:39:22;;;;;;;7.05;2.38;;;15.10;99.90;;;;;;5056282;28;20548;-52
2022/10/24 03:41:48;;;;;;;7.07;2.38;;;15.10;99.90;;;;;;5055943;28;20158;-53
2022/10/24 03:44:14;;;;;;;5.22;2.10;;;15.20;99.90;;;;;;5057422;28;20033;-52
2022/10/24 03:46:39;;;;;;;5.45;2.30;;;15.20;99.90;;;;;;5058488;28;20394;-52
2022/10/24 03:49:05;;;;;;;9.10;2.25;;;15.20;99.90;;;;;;5057701;28;20402;-52
2022/10/24 03:51:31;;;;;;;9.02;2.40;;;15.20;99.90;;;;;;5059300;28;20040;-52
2022/10/24 03:53:56;;;;;;;8.43;2.20;;;15.20;99.90;;;;;;5055897;28;20040;-54
2022/10/24 03:56:22;;;;;;;6.10;2.05;;;15.20;99.90;;;;;;5057001;28;20041;-52
2022/10/24 03:58:48;;;;;;;5.88;2.30;;;15.10;99.90;;;;;;5056786;28;20053;-53
2022/10/24 04:01:16;;;;;;;6.65;2.03;;;15.00;99.90;;;;;;5056352;28;20650;-52
2022/10/24 04:03:44;;;;;;;6.68;2.30;;;14.90;99.90;;;;;;5058187;28;20080;-54
2022/10/24 04:06:10;;;;;;;4.65;1.95;;;14.80;99.90;;;;;;5058467;28;20048;-52
2022/10/24 04:08:36;;;;;;;5.20;1.83;;;14.80;99.90;;;;;;5059908;28;20043;-54
2022/10/24 04:11:01;;;;;;;9.48;2.95;;;14.80;99.90;;;;;;5062376;28;20044;-53
2022/10/24 04:13:27;;;;;;;7.90;2.30;;;14.80;99.90;;;;;;5054499;28;20462;-51
2022/10/24 04:15:53;;;;;;;7.60;1.90;;;14.70;99.90;;;;;;5053668;28;20418;-53
2022/10/24 04:18:19;;;;;;;6.63;2.13;;;14.70;99.90;;;;;;5053392;28;20032;-52
2022/10/24 04:20:44;;;;;;;6.35;1.80;;;14.70;99.90;;;;;;5050291;28;20190;-54
2022/10/24 04:23:10;;;;;;;4.80;1.73;;;14.70;99.90;;;;;;5053420;28;20048;-49
2022/10/24 04:25:35;;;;;;;7.03;2.10;;;14.70;99.90;;;;;;5056281;28;20055;-52
2022/10/24 04:28:02;;;;;;;6.85;1.92;;;14.60;99.90;;;;;;5056439;28;20055;-50
2022/10/24 04:30:28;;;;;;;12.95;2.42;;;14.60;99.90;;;;;;5062864;28;20072;-48
2022/10/24 04:32:55;;;;;;;6.32;1.70;;;14.60;99.90;;;;;;5060894;28;20049;-48
2022/10/24 04:35:21;;;;;;;8.27;2.03;;;14.50;99.90;;;;;;5058559;28;20045;-50
2022/10/24 04:37:47;;;;;;;7.30;1.90;;;14.50;99.90;;;;;;5055250;28;20056;-51
2022/10/24 04:40:12;;;;;;;5.43;1.98;;;14.50;99.90;;;;;;5056402;28;20056;-53
2022/10/24 04:42:39;;;;;;;3.80;1.70;;;14.50;99.90;;;;;;5056499;28;20078;-53
2022/10/24 04:45:05;;;;;;;6.75;2.10;;;14.50;99.90;;;;;;5057941;28;20040;-54
2022/10/24 04:47:31;;;;;;;9.30;2.10;;;14.50;99.90;;;;;;5060051;28;20052;-54
2022/10/24 04:49:57;;;;;;;4.05;1.73;;;14.50;99.90;;;;;;5058416;28;20044;-51
2022/10/24 04:52:22;;;;;;;4.30;1.98;;;14.40;99.90;;;;;;5057668;28;20482;-51
2022/10/24 04:54:48;;;;;;;5.40;1.90;;;14.40;99.90;;;;;;5052989;28;20079;-52
2022/10/24 04:57:14;;;;;;;7.78;2.05;;;14.40;99.90;;;;;;5053852;28;20052;-50
2022/10/24 04:59:39;;;;;;;6.65;2.05;;;14.40;99.90;;;;;;5054513;28;20648;-54
2022/10/24 05:02:05;;;;;;;6.78;2.10;;;14.30;99.90;;;;;;5069386;28;20148;-54
2022/10/24 05:04:31;;;;;;;6.70;1.85;;;14.30;99.90;;;;;;5057019;28;20049;-53
2022/10/24 05:06:56;;;;;;;5.43;1.63;;;14.30;99.90;;;;;;5055993;28;20041;-51
2022/10/24 05:09:22;;;;;;;5.95;1.55;;;14.30;99.90;;;;;;5057848;28;20040;-52
2022/10/24 05:11:47;;;;;;;7.07;2.15;;;14.40;99.90;;;;;;5058364;28;20056;-52
2022/10/24 05:14:13;;;;;;;8.52;1.83;;;14.30;99.90;;;;;;5057037;28;20359;-52
2022/10/24 05:16:39;;;;;;;7.40;2.13;;;14.40;99.90;;;;;;5059209;28;20445;-52
2022/10/24 05:19:05;;;;;;;8.95;2.10;;;14.30;99.90;;;;;;5057000;28;20045;-52
2022/10/24 05:21:32;;;;;;;9.73;2.63;;;14.30;99.90;;;;;;5058849;28;20140;-51
2022/10/24 05:23:58;;;;;;;6.88;1.88;;;14.20;99.90;;;;;;5054600;28;21846;-50
2022/10/24 05:26:24;;;;;;;6.00;2.40;;;14.20;99.90;;;;;;5056231;28;20950;-50
2022/10/24 05:28:50;;;;;;;7.80;1.75;;;14.10;99.90;;;;;;5056145;28;20048;-53
2022/10/24 05:31:16;;;;;;;5.32;1.80;;;14.10;99.90;;;;;;5057154;28;20505;-53
2022/10/24 05:33:41;;;;;;;4.68;1.88;;;14.10;99.90;;;;;;5056341;28;20130;-52
2022/10/24 05:36:07;;;;;;;6.75;1.80;;;14.10;99.90;;;;;;5056271;28;20762;-53
2022/10/24 05:38:33;;;;;;;4.10;1.42;;;14.10;99.90;;;;;;5055202;28;20036;-51
2022/10/24 05:40:58;;;;;;;5.15;1.60;;;14.10;99.90;;;;;;5054107;28;20033;-52
2022/10/24 05:43:24;;;;;;;8.30;1.95;;;14.20;99.90;;;;;;5056385;28;20040;-48
2022/10/24 05:45:50;;;;;;;3.90;1.48;;;14.10;99.90;;;;;;5057664;28;20037;-52
2022/10/24 05:48:15;;;;;;;4.93;1.77;;;14.10;99.90;;;;;;5057080;28;20546;-50
2022/10/24 05:50:41;;;;;;;5.20;1.80;;;14.10;99.90;;;;;;5055658;28;20041;-51
2022/10/24 05:53:07;;;;;;;3.67;1.60;;;14.10;99.90;;;;;;5058667;28;20504;-51
2022/10/24 05:55:34;;;;;;;5.40;1.95;;;14.20;99.90;;;;;;5054762;28;20048;-52
2022/10/24 05:58:00;;;;;;;4.40;1.70;;;14.30;99.90;;;;;;5054814;28;20044;-50
2022/10/24 06:00:25;;;;;;;5.13;1.80;;;14.20;99.90;;;;;;5057147;28;20048;-48
2022/10/24 06:02:51;;;;;;;4.82;2.00;;;14.30;99.90;;;;;;5058151;28;20080;-51
2022/10/24 06:05:17;;;;;;;4.40;2.10;;;14.20;99.90;;;;;;5060813;28;20123;-50
2022/10/24 06:07:43;;;;;;;6.25;1.70;;;14.30;99.90;;;;;;5057060;28;20041;-54
2022/10/24 06:10:10;;;;;;;5.40;1.80;;;14.40;99.90;;;;;;5057757;28;20383;-53
2022/10/24 06:12:36;;;;;;;5.82;1.75;;;14.40;99.90;;;;;;5056772;28;20044;-52
2022/10/24 06:15:04;;;;;;;5.13;1.88;;;14.30;99.90;;;;;;5053798;28;20035;-53
2022/10/24 06:17:30;;;;;;;7.32;2.03;;;14.40;99.90;;;;;;5057717;28;20040;-52
2022/10/24 06:19:55;;;;;;;4.45;1.60;;;14.50;99.90;;;;;;5058662;28;20048;-53
2022/10/24 06:22:28;;;;;;;5.30;1.92;;;14.50;99.90;;;;;;5054417;28;20043;-52
2022/10/24 06:24:54;;;;;;;6.15;2.15;;;14.50;99.90;;;;;;5055631;28;20041;-50
2022/10/24 06:27:19;;;;;;;5.90;2.13;;;14.50;99.90;;;;;;5053222;28;20145;-54
2022/10/24 06:29:45;;;;;;;9.15;2.05;;;14.50;99.90;;;;;;5051147;28;20160;-51
2022/10/24 06:32:11;;;;;;;5.22;1.75;;;14.50;99.90;;;;;;5058535;28;20458;-52
2022/10/24 06:34:36;;;;;;;7.90;1.75;;;14.50;99.90;;;;;;5052547;28;20098;-51
2022/10/24 06:37:02;;;;;;;4.15;1.65;;;14.50;99.90;;;;;;5053432;28;20047;-53
2022/10/24 06:39:28;;;;;;;8.38;1.60;;;14.50;99.90;;;;;;5058137;28;20100;-52
2022/10/24 06:41:53;;;;;;;10.35;1.98;;;14.50;99.90;;;;;;5057630;28;20029;-51
2022/10/24 06:44:19;;;;;;;7.47;1.70;;;14.50;99.90;;;;;;5058021;28;20070;-48
2022/10/24 06:46:44;;;;;;;9.35;1.77;;;14.50;99.90;;;;;;5057454;28;20494;-52
2022/10/24 06:49:12;;;;;;;6.70;2.20;;;14.60;99.90;;;;;;5057916;28;20436;-50
2022/10/24 06:51:38;;;;;;;7.63;1.70;;;14.60;99.90;;;;;;5057714;28;20045;-54
2022/10/24 06:54:04;;;;;;;5.32;1.73;;;14.60;99.90;;;;;;5061640;28;20294;-55
2022/10/24 06:56:30;;;;;;;10.88;2.33;;;14.60;99.90;;;;;;5057883;28;20037;-51
2022/10/24 06:58:55;;;;;;;5.47;1.50;;;14.50;99.90;;;;;;5057738;28;20491;-52
2022/10/24 07:01:23;;;;;;;8.52;1.35;;;14.60;99.90;;;;;;5058411;28;20655;-56
2022/10/24 07:03:49;;;;;;;7.22;2.05;;;14.60;99.90;;;;;;5059202;28;20935;-52
2022/10/24 07:06:18;;;;;;;5.80;1.70;;;14.50;99.90;;;;;;5060544;28;21557;-52
2022/10/24 07:08:44;;;;;;;6.82;1.63;;;14.60;99.90;;;;;;5059340;28;20044;-51
2022/10/24 07:11:10;;;;;;;7.95;1.67;;;14.60;99.90;;;;;;5057774;28;20053;-52
2022/10/24 07:13:36;;;;;;;4.95;1.98;;;14.60;99.90;;;;;;5060004;28;20131;-52
2022/10/24 07:16:03;;;;;;;4.38;1.70;;;14.60;99.90;;;;;;5058183;28;20044;-51
2022/10/24 07:18:28;;;;;;;4.55;1.70;;;14.70;99.90;;;;;;5058913;28;20079;-51
2022/10/24 07:20:54;;;;;;;7.80;2.20;;;14.80;99.90;;;;;;5057023;28;20630;-52
2022/10/24 07:23:20;;;;;;;7.28;1.80;;;14.90;99.90;;;;;;5058030;28;20041;-53
2022/10/24 07:25:45;;;;;;;7.13;1.73;;;15.00;99.90;;;;;;5061086;28;20101;-53
2022/10/24 07:28:11;;;;;;;8.82;1.70;;;15.00;99.90;;;;;;5057246;28;20423;-50
2022/10/24 07:30:38;;;;;;;8.75;1.83;;;15.20;99.90;;;;;;5057571;28;20029;-52
2022/10/24 07:33:04;;;;;;;8.18;1.58;;;15.50;99.90;;;;;;5061440;28;20067;-52
2022/10/24 07:35:30;;;;;;;5.70;1.60;;;15.60;99.90;;;;;;5058213;28;20083;-52
2022/10/24 07:37:56;;;;;;;5.75;1.63;;;15.60;99.90;;;;;;5063144;28;20032;-51
2022/10/24 07:40:21;;;;;;;7.70;1.77;;;15.70;99.90;;;;;;5059250;28;20069;-52
2022/10/24 07:42:47;;;;;;;5.72;1.50;;;15.90;99.90;;;;;;5063346;28;20201;-55
2022/10/24 07:45:13;;;;;;;7.55;1.98;;;16.00;99.90;;;;;;5057871;28;20444;-53
2022/10/24 07:47:39;;;;;;;8.90;1.60;;;16.10;99.90;;;;;;5058274;28;20079;-52
2022/10/24 07:50:05;;;;;;;3.88;1.30;;;16.20;99.90;;;;;;5055011;28;20587;-53
2022/10/24 07:52:31;;;;;;;7.20;1.70;;;16.10;99.90;;;;;;5058001;28;20542;-52
2022/10/24 07:54:57;;;;;;;7.70;1.70;;;16.00;99.90;;;;;;5058869;28;20119;-55
2022/10/24 07:57:23;;;;;;;8.93;1.92;;;16.00;99.90;;;;;;5055729;28;20489;-53
2022/10/24 07:59:49;;;;;;;8.93;2.00;;;15.90;99.90;;;;;;5057973;28;20510;-48
2022/10/24 08:02:16;;;;;;;4.95;1.17;;;15.90;99.90;;;;;;5063433;28;20136;-50
2022/10/24 08:04:41;;;;;;;5.75;1.67;;;15.90;99.90;;;;;;5057240;28;20048;-49
2022/10/24 08:07:11;;;;;;;6.00;1.63;;;15.90;99.90;;;;;;5067428;28;20037;-51
2022/10/24 08:09:42;;;;;;;5.47;1.20;;;15.90;99.90;;;;;;5062682;28;20137;-52
2022/10/24 08:12:08;;;;;;;7.70;1.55;;;15.90;99.90;;;;;;5065407;28;20052;-54
2022/10/24 08:14:35;;;;;;;8.93;1.83;;;15.90;99.90;;;;;;5061304;28;20686;-53
2022/10/24 08:17:01;;;;;;;9.40;1.70;;;15.90;99.90;;;;;;5061497;28;20032;-52
2022/10/24 08:19:27;;;;;;;7.82;1.80;;;16.00;99.90;;;;;;5059439;28;20044;-52
2022/10/24 08:21:52;;;;;;;8.73;2.10;;;16.00;99.90;;;;;;5059994;28;20044;-51
2022/10/24 08:24:18;;;;;;;9.60;1.63;;;16.10;99.90;;;;;;5056272;28;21504;-53
2022/10/24 08:26:43;;;;;;;5.90;1.50;;;16.30;99.90;;;;;;5059691;28;20037;-50
2022/10/24 08:29:10;;;;;;;7.40;1.55;;;16.30;99.90;;;;;;5061475;28;20518;-53
2022/10/24 08:31:37;;;;;;;7.07;1.92;;;16.40;99.90;;;;;;5059740;28;20484;-50
2022/10/24 08:34:04;;;;;;;5.50;1.50;;;16.40;99.90;;;;;;5057412;28;20085;-55
2022/10/24 08:36:33;;;;;;;8.45;1.58;;;16.50;99.90;;;;;;5067576;28;20378;-52
2022/10/24 08:38:59;;;;;;;7.25;1.80;;;16.60;99.90;;;;;;5061262;28;20032;-49
2022/10/24 08:41:45;;;;;;;6.38;1.90;;;16.60;99.90;;;;;;5057854;28;20655;-55
2022/10/24 08:44:38;;;;;;;8.77;1.42;;;16.70;99.90;;;;;;5059650;28;20040;-52
2022/10/24 08:47:25;;;;;;;8.65;1.98;;;16.80;99.90;;;;;;5060811;28;20043;-50
2022/10/24 08:49:53;;;;;;;4.97;1.60;;;16.80;99.90;;;;;;5062320;28;20067;-51
2022/10/24 08:52:26;;;;;;;11.68;1.92;;;16.70;99.90;;;;;;5081180;28;20170;-52
2022/10/24 08:54:52;;;;;;;9.57;1.95;;;16.70;99.90;;;;;;5060278;28;20081;-53
2022/10/24 08:57:26;;;;;;;6.75;1.30;;;16.60;99.90;;;;;;5058615;28;20041;-51
2022/10/24 08:59:53;;;;;;;11.50;1.90;;;16.60;99.90;;;;;;5055649;28;20078;-53
2022/10/24 09:02:22;;;;;;;;;;;16.60;99.90;;;;;;5063195;28;20122;-51
2022/10/24 09:05:17;;;;;;;12.07;1.63;;;16.80;99.90;;;;;;5065610;28;20383;-50
2022/10/24 09:07:45;;;;;;;7.53;1.70;;;17.10;99.90;;;;;;5064560;28;20052;-52
2022/10/24 09:10:17;;;;;;;7.43;1.38;;;17.20;99.90;;;;;;5063742;28;20048;-55
2022/10/24 09:12:43;;;;;;;8.10;1.90;;;17.20;99.90;;;;;;5074926;28;20051;-47
2022/10/24 09:15:29;;;;;;;8.73;1.60;;;17.20;99.90;;;;;;5081213;28;20040;-50
2022/10/24 09:17:56;;;;;;;13.27;1.80;;;17.20;99.90;;;;;;5077983;28;20043;-53
2022/10/24 09:20:26;;;;;;;6.63;1.50;;;17.10;99.90;;;;;;5092264;28;20047;-52
2022/10/24 09:22:59;;;;;;;7.20;1.50;;;17.00;99.90;;;;;;5086614;28;20840;-50
2022/10/24 09:25:30;;;;;;;8.82;1.88;;;17.10;99.90;;;;;;5061448;28;20037;-53
2022/10/24 09:28:00;;;;;;;5.97;1.70;;;17.20;99.90;;;;;;5065672;28;20056;-52
2022/10/24 09:30:26;;;;;;;6.70;1.50;;;17.40;99.90;;;;;;5065185;28;20119;-50
2022/10/24 09:32:54;;;;;;;8.68;2.08;;;17.50;99.90;;;;;;5071169;28;20402;-53
2022/10/24 09:35:21;;;;;;;;;;;17.60;99.90;;;;;;5083623;28;20044;-52
2022/10/24 09:37:50;;;;;;;9.05;1.92;;;17.60;99.90;;;;;;5064479;28;20390;-52
2022/10/24 09:40:22;;;;;;;7.47;1.77;;;17.60;99.90;;;;;;5070977;28;20532;-54
2022/10/24 09:43:14;;;;;;;7.05;1.42;;;17.70;99.90;;;;;;5065181;28;20048;-53
2022/10/24 09:45:41;;;;;;;8.82;1.52;;;17.60;99.90;;;;;;5064262;28;20049;-51
2022/10/24 09:48:16;;;;;;;5.75;1.25;;;17.60;99.90;;;;;;5069310;28;20036;-52
2022/10/24 09:50:43;;;;;;;6.75;1.80;;;17.60;99.90;;;;;;5064059;28;20067;-52
2022/10/24 09:53:30;;;;;;;7.28;1.80;;;17.60;99.90;;;;;;5057785;28;20049;-52
2022/10/24 09:55:59;;;;;;;6.30;1.63;;;17.70;99.90;;;;;;5064904;28;20052;-52
2022/10/24 09:58:31;;;;;;;6.65;1.70;;;17.70;99.90;;;;;;5057487;28;20036;-53
2022/10/24 10:01:21;;;;;;;8.45;1.90;;;17.70;99.90;;;;;;5058260;28;20181;-53
2022/10/24 10:04:02;;;;;;;4.53;1.23;;;17.60;99.90;;;;;;5059753;28;20139;-53
2022/10/24 10:06:28;;;;;;;7.88;1.70;;;17.50;99.90;;;;;;5063917;28;20048;-53
2022/10/24 10:08:56;;;;;;;7.82;1.67;;;17.40;99.90;;;;;;5071445;28;20041;-53
2022/10/24 10:11:30;;;;;;;5.95;1.33;;;17.40;99.90;;;;;;5067652;28;20068;-53
2022/10/24 10:14:00;;;;;;;6.75;1.20;;;17.20;99.90;;;;;;5067889;28;20048;-50
2022/10/24 10:16:38;;;;;;;8.23;1.60;;;17.30;99.90;;;;;;5065663;28;20040;-52
2022/10/24 10:19:19;;;;;;;7.07;1.50;;;17.20;99.90;;;;;;5084380;28;20116;-53
2022/10/24 10:22:03;;;;;;;5.90;1.30;;;17.20;99.90;;;;;;5075442;28;20033;-51
2022/10/24 10:24:34;;;;;;;9.25;1.77;;;17.10;99.90;;;;;;5072349;28;20066;-51
2022/10/24 10:27:02;;;;;;;5.22;1.40;;;17.00;99.90;;;;;;5066125;28;20041;-52
2022/10/24 10:29:27;;;;;;;;;;;17.00;99.90;;;;;;5087832;28;20040;-53
2022/10/24 10:32:16;;;;;;;5.20;1.25;;;16.90;99.90;;;;;;5070446;28;19920;-51
2022/10/24 10:34:49;;;;;;;9.35;1.50;;;16.90;99.90;;;;;;5069246;28;20080;-53
2022/10/24 10:37:30;;;;;;;4.45;1.30;;;16.80;99.90;;;;;;5084283;28;20086;-54
2022/10/24 10:40:02;;;;;;;6.15;1.27;;;16.80;99.90;;;;;;5088940;28;20592;-49
2022/10/24 10:43:00;;;;;;;4.40;0.93;;;16.80;99.90;;;;;;5081241;28;20047;-51
2022/10/24 10:45:38;;;;;;;6.68;1.80;;;16.80;99.90;;;;;;5091305;28;20501;-54
2022/10/24 10:48:22;;;;;;;;;;;16.90;99.90;;;;;;5084672;28;20089;-54
2022/10/24 10:50:52;;;;;;;5.60;1.42;;;16.90;99.90;;;;;;5090431;28;22040;-52
2022/10/24 10:53:59;;;;;;;7.22;1.67;;;16.80;99.90;;;;;;5065291;28;20513;-53
2022/10/24 10:57:04;;;;;;;6.50;1.13;;;16.80;99.90;;;;;;5066784;28;20044;-52
2022/10/24 11:00:00;;;;;;;6.65;1.30;;;16.80;99.90;;;;;;5079083;28;20122;-52
2022/10/24 11:02:46;;;;;;;4.18;1.30;;;16.80;99.90;;;;;;5075764;28;20040;-50
2022/10/24 11:05:49;;;;;;;3.45;1.20;;;16.90;99.90;;;;;;5089644;28;20136;-54
2022/10/24 11:08:40;;;;;;;7.97;1.05;;;16.80;99.90;;;;;;5081507;28;20115;-52
2022/10/24 11:11:26;;;;;;;7.13;1.20;;;16.90;99.90;;;;;;5070093;28;20058;-51
2022/10/24 11:14:16;;;;;;;5.32;1.30;;;17.20;99.90;;;;;;5069909;28;20059;-52
2022/10/24 11:16:42;;;;;;;4.35;1.30;;;17.10;99.90;;;;;;5070485;28;20043;-54
2022/10/24 11:19:39;;;;;;;6.95;1.55;;;17.10;99.90;;;;;;5072961;28;20615;-52
2022/10/24 11:22:08;;;;;;;4.97;1.85;;;17.20;99.90;;;;;;5085335;28;20036;-54
2022/10/24 11:24:45;;;;;;;5.80;1.23;;;17.20;99.90;;;;;;5075535;28;20656;-52
2022/10/24 11:27:25;;;;;;;7.25;1.63;;;17.20;99.90;;;;;;5075610;28;20045;-53
2022/10/24 11:30:10;;;;;;;5.95;1.30;;;17.10;99.90;;;;;;5068520;28;20048;-53
2022/10/24 11:33:00;;;;;;;5.97;1.20;;;17.10;99.90;;;;;;5073928;28;20053;-52
2022/10/24 11:35:31;;;;;;;4.50;1.10;;;17.10;99.90;;;;;;5064733;28;20041;-52
2022/10/24 11:38:11;;;;;;;9.10;1.65;;;17.30;99.90;;;;;;5066557;28;20044;-49
2022/10/24 11:40:40;;;;;;;5.68;1.33;;;17.70;99.90;;;;;;5069070;28;20048;-52
2022/10/24 11:43:11;;;;;;;4.50;1.05;;;17.80;99.90;;;;;;5069325;28;20503;-54
2022/10/24 11:45:59;;;;;;;4.72;1.10;;;17.90;99.90;;;;;;5065832;28;20041;-52
2022/10/24 11:48:41;;;;;;;6.53;1.20;;;17.90;99.90;;;;;;5069678;28;20044;-54
2022/10/24 11:51:11;;;;;;;5.40;1.25;;;17.90;99.90;;;;;;5069218;28;20052;-50
2022/10/24 11:53:38;;;;;;;5.72;0.98;;;17.90;99.90;;;;;;5072228;28;20060;-53
2022/10/24 11:56:30;;;;;;;5.97;1.20;;;17.80;99.90;;;;;;5068621;28;20048;-54
2022/10/24 11:59:11;;;;;;;6.93;1.30;;;18.00;99.90;;;;;;5068631;28;20086;-58
2022/10/24 12:02:08;;;;;;;3.72;1.15;;;18.20;99.90;;;;;;5067407;28;20049;-52
2022/10/24 12:05:10;;;;;;;4.10;1.15;;;18.30;99.90;;;;;;5066482;28;20490;-49
2022/10/24 12:07:38;;;;;;;10.00;1.40;;;18.30;99.90;;;;;;5068254;28;20098;-47
2022/10/24 12:10:28;;;;;;;10.80;1.20;;;18.30;99.90;;;;;;5067398;28;20060;-50
2022/10/24 12:13:03;;;;;;;5.40;1.00;;;18.20;99.90;;;;;;5066395;28;20040;-51
2022/10/24 12:15:47;;;;;;;5.60;1.33;;;18.10;99.90;;;;;;5062608;28;20509;-49
2022/10/24 12:18:27;;;;;;;4.32;0.93;;;18.00;99.90;;;;;;5064283;28;20490;-49
2022/10/24 12:20:56;;;;;;;4.05;0.93;;;17.90;99.90;;;;;;5068899;28;20047;-46
2022/10/24 12:23:26;;;;;;;6.00;0.93;;;17.80;99.90;;;;;;5066173;28;20512;-47
2022/10/24 12:26:26;;;;;;;10.77;1.33;;;17.80;99.90;;;;;;5066690;28;20395;-47
2022/10/24 12:29:00;;;;;;;7.18;1.00;;;17.80;99.90;;;;;;5066040;28;20522;-49
2022/10/24 12:31:30;;;;;;;8.00;1.52;;;17.80;99.90;;;;;;5065390;28;20443;-46
2022/10/24 12:34:30;;;;;;;5.78;1.20;;;17.90;99.90;;;;;;5065351;28;20072;-48
2022/10/24 12:37:11;;;;;;;4.43;1.85;;;17.80;99.90;;;;;;5058643;28;20053;-46
2022/10/24 12:39:40;;;;;;;7.82;1.35;;;17.80;99.90;;;;;;5065801;28;20040;-49
2022/10/24 12:42:35;;;;;;;7.20;1.77;;;17.70;99.90;;;;;;5065745;28;20047;-49
2022/10/24 12:45:00;;;;;;;6.07;1.10;;;17.60;99.90;;;;;;5066623;28;20512;-48
2022/10/24 12:47:32;;;;;;;7.90;1.10;;;17.60;99.90;;;;;;5067626;28;20040;-47
2022/10/24 12:50:19;;;;;;;4.82;1.30;;;17.50;99.90;;;;;;5068304;28;20508;-49
2022/10/24 12:52:45;;;;;;;;;;;17.50;99.90;;;;;;5066257;28;20052;-50
2022/10/24 12:55:36;;;;;;;5.22;1.38;;;17.60;99.90;;;;;;5065702;28;19973;-48
2022/10/24 12:58:19;;;;;;;2.35;0.80;;;17.50;99.90;;;;;;5045199;28;20049;-48
2022/10/24 13:00:56;;;;;;;3.90;0.98;;;17.40;99.90;;;;;;5064224;28;20036;-46
2022/10/24 13:03:49;;;;;;;4.22;1.10;;;17.30;99.90;;;;;;5064770;28;20061;-51
2022/10/24 13:06:45;;;;;;;7.55;1.38;;;17.20;99.90;;;;;;5065342;28;20119;-48
2022/10/24 13:09:47;;;;;;;5.97;0.90;;;17.20;99.90;;;;;;5059375;28;20060;-50